Time;durP1;ratioP1;P1;durP2;ratioP2;P2;SDS_P1;SDS_P2;PMS_P1;PMS_P2;Temp;Humidity;BMP_temperature;BMP_pressure;BME280_temperature;BME280_humidity;BME280_pressure;Samples;Min_cycle;Max_cycle;Signal;HPM_P1;HPM_P2
2022/07/09 00:00:21;;;;;;;2.70;2.10;;;17.90;99.50;;;;;;5039981;28;20226;-71
2022/07/09 00:02:46;;;;;;;4.20;2.47;;;17.90;99.60;;;;;;5036860;28;20225;-68
2022/07/09 00:05:13;;;;;;;5.10;2.10;;;17.80;99.70;;;;;;5033982;28;20631;-69
2022/07/09 00:07:39;;;;;;;4.43;2.33;;;17.60;99.80;;;;;;5029834;28;20183;-71
2022/07/09 00:10:05;;;;;;;3.87;2.53;;;17.50;99.90;;;;;;5035450;28;20461;-71
2022/07/09 00:12:31;;;;;;;4.87;2.30;;;17.40;99.90;;;;;;5015471;28;20433;-69
2022/07/09 00:14:57;;;;;;;4.37;2.60;;;17.30;99.90;;;;;;5030151;28;20440;-70
2022/07/09 00:17:22;;;;;;;4.40;2.73;;;17.30;99.90;;;;;;5030154;28;20190;-71
2022/07/09 00:19:48;;;;;;;6.13;2.67;;;17.20;99.90;;;;;;5038417;28;20243;-74
2022/07/09 00:22:13;;;;;;;7.00;2.80;;;17.20;99.90;;;;;;5028886;28;20206;-70
2022/07/09 00:24:39;;;;;;;2.43;2.17;;;17.20;99.90;;;;;;5033307;28;20354;-69
2022/07/09 00:27:05;;;;;;;4.30;2.10;;;17.20;99.90;;;;;;5040675;28;20639;-71
2022/07/09 00:29:30;;;;;;;3.90;2.27;;;17.20;99.90;;;;;;5038457;28;20196;-71
2022/07/09 00:31:56;;;;;;;4.90;2.43;;;17.20;99.90;;;;;;5038177;28;20205;-70
2022/07/09 00:34:21;;;;;;;3.67;2.53;;;17.40;99.90;;;;;;5033704;28;20213;-70
2022/07/09 00:36:47;;;;;;;4.87;2.17;;;17.40;99.90;;;;;;5034183;28;20185;-68
2022/07/09 00:39:13;;;;;;;6.93;2.57;;;17.50;99.90;;;;;;5040367;28;20186;-70
2022/07/09 00:41:38;;;;;;;2.73;2.33;;;17.40;99.90;;;;;;5043909;28;20725;-72
2022/07/09 00:44:04;;;;;;;3.13;2.20;;;17.20;99.90;;;;;;5038390;28;20167;-70
2022/07/09 00:46:29;;;;;;;3.00;2.33;;;17.20;99.90;;;;;;5028216;28;20273;-70
2022/07/09 00:48:55;;;;;;;4.50;2.50;;;17.30;99.90;;;;;;5040301;28;20186;-72
2022/07/09 00:51:21;;;;;;;3.80;2.30;;;17.30;99.90;;;;;;5043822;28;20637;-70
2022/07/09 00:53:49;;;;;;;3.13;2.70;;;17.30;99.90;;;;;;5043631;28;20188;-71
2022/07/09 00:56:16;;;;;;;7.20;2.93;;;17.30;99.90;;;;;;5021309;28;20175;-71
2022/07/09 00:58:44;;;;;;;6.40;2.50;;;17.20;99.90;;;;;;5023576;28;20425;-72
2022/07/09 01:01:09;;;;;;;3.73;2.60;;;17.20;99.90;;;;;;5023817;28;20471;-71
2022/07/09 01:03:35;;;;;;;4.37;2.40;;;17.20;99.90;;;;;;5043475;28;20572;-70
2022/07/09 01:06:01;;;;;;;2.93;2.27;;;17.20;99.90;;;;;;5043639;28;20177;-70
2022/07/09 01:08:26;;;;;;;2.90;2.43;;;17.30;99.90;;;;;;5043387;28;20178;-71
2022/07/09 01:10:53;;;;;;;4.03;2.50;;;17.30;99.90;;;;;;5028571;28;20217;-71
2022/07/09 01:13:19;;;;;;;3.33;2.33;;;17.30;99.90;;;;;;5029896;28;20198;-69
2022/07/09 01:15:44;;;;;;;3.37;2.37;;;17.30;99.90;;;;;;5023692;28;20429;-69
2022/07/09 01:18:11;;;;;;;2.27;2.07;;;17.30;99.90;;;;;;5023906;28;20201;-70
2022/07/09 01:20:37;;;;;;;2.80;2.47;;;17.30;99.90;;;;;;5031316;28;20248;-69
2022/07/09 01:23:03;;;;;;;5.43;2.43;;;17.30;99.90;;;;;;5025978;28;20457;-71
2022/07/09 01:25:35;;;;;;;2.93;2.30;;;17.30;99.90;;;;;;5023447;28;20721;-72
2022/07/09 01:28:01;;;;;;;4.57;2.53;;;17.30;99.90;;;;;;5023674;28;20175;-71
2022/07/09 01:30:28;;;;;;;4.27;2.50;;;17.30;99.90;;;;;;5006792;28;20443;-70
2022/07/09 01:32:54;;;;;;;3.60;2.20;;;17.30;99.90;;;;;;5031797;28;20454;-69
2022/07/09 01:35:21;;;;;;;3.27;2.60;;;17.30;99.90;;;;;;5032028;28;20418;-71
2022/07/09 01:37:47;;;;;;;2.50;2.10;;;17.20;99.90;;;;;;5022496;28;21438;-70
2022/07/09 01:40:13;;;;;;;3.87;2.43;;;17.10;99.90;;;;;;5044776;28;20436;-70
2022/07/09 01:42:39;;;;;;;4.83;2.37;;;17.10;99.90;;;;;;5048996;28;20618;-70
2022/07/09 01:45:06;;;;;;;5.27;2.50;;;17.10;99.90;;;;;;5044780;28;20863;-70
2022/07/09 01:47:31;;;;;;;3.43;2.50;;;17.10;99.90;;;;;;5024325;28;20413;-73
2022/07/09 01:49:57;;;;;;;4.50;2.33;;;17.00;99.90;;;;;;5023556;28;20821;-71
2022/07/09 01:52:22;;;;;;;3.10;2.40;;;16.90;99.90;;;;;;5028167;28;20289;-70
2022/07/09 01:54:48;;;;;;;5.20;2.60;;;16.80;99.90;;;;;;5042244;28;20193;-69
2022/07/09 01:57:14;;;;;;;3.10;2.53;;;16.80;99.90;;;;;;5029170;28;20547;-69
2022/07/09 01:59:39;;;;;;;5.37;2.63;;;16.80;99.90;;;;;;5032581;28;20711;-74
2022/07/09 02:02:05;;;;;;;4.03;2.47;;;16.90;99.90;;;;;;5036498;28;20227;-70
2022/07/09 02:04:31;;;;;;;3.20;2.10;;;16.90;99.90;;;;;;5030392;28;20547;-70
2022/07/09 02:06:57;;;;;;;6.23;2.70;;;16.80;99.90;;;;;;5031872;28;20174;-72
2022/07/09 02:09:22;;;;;;;2.60;2.20;;;16.80;99.90;;;;;;5010748;28;20431;-69
2022/07/09 02:11:48;;;;;;;2.90;2.50;;;16.90;99.90;;;;;;5028622;28;20200;-70
2022/07/09 02:14:14;;;;;;;5.73;2.20;;;16.90;99.90;;;;;;5031615;28;20178;-71
2022/07/09 02:16:40;;;;;;;2.60;1.90;;;16.90;99.90;;;;;;5034068;28;20190;-69
2022/07/09 02:19:06;;;;;;;3.43;2.43;;;16.80;99.90;;;;;;5032112;28;20428;-70
2022/07/09 02:21:32;;;;;;;2.90;2.47;;;16.70;99.90;;;;;;5038632;28;20289;-70
2022/07/09 02:23:58;;;;;;;2.33;2.13;;;16.70;99.90;;;;;;5038715;28;20430;-69
2022/07/09 02:26:25;;;;;;;3.53;3.23;;;16.60;99.90;;;;;;5035336;28;20523;-69
2022/07/09 02:28:51;;;;;;;3.40;2.67;;;16.60;99.90;;;;;;5032769;28;20414;-69
2022/07/09 02:31:17;;;;;;;5.23;2.47;;;16.60;99.90;;;;;;5032745;28;20429;-70
2022/07/09 02:33:43;;;;;;;3.40;2.93;;;16.50;99.90;;;;;;5029217;28;20507;-68
2022/07/09 02:36:09;;;;;;;3.23;2.53;;;16.50;99.90;;;;;;5031026;28;20543;-70
2022/07/09 02:38:35;;;;;;;4.60;2.63;;;16.40;99.90;;;;;;5030212;28;20236;-69
2022/07/09 02:41:01;;;;;;;3.43;2.70;;;16.40;99.90;;;;;;5032604;28;20208;-70
2022/07/09 02:43:27;;;;;;;3.87;2.40;;;16.40;99.90;;;;;;5025676;28;20174;-68
2022/07/09 02:45:55;;;;;;;3.90;2.50;;;16.30;99.90;;;;;;5033063;28;20415;-71
2022/07/09 02:48:21;;;;;;;3.60;2.90;;;16.30;99.90;;;;;;5032857;28;21237;-69
2022/07/09 02:50:47;;;;;;;3.23;2.50;;;16.30;99.90;;;;;;5036630;28;20499;-69
2022/07/09 02:53:12;;;;;;;5.70;2.80;;;16.30;99.90;;;;;;5028394;28;20921;-70
2022/07/09 02:55:38;;;;;;;2.90;2.43;;;16.40;99.90;;;;;;5033764;28;20189;-69
2022/07/09 02:58:03;;;;;;;3.83;2.83;;;16.40;99.90;;;;;;5039378;28;20182;-72
2022/07/09 03:00:29;;;;;;;4.23;2.40;;;16.40;99.90;;;;;;5035741;28;20220;-70
2022/07/09 03:02:54;;;;;;;4.63;2.73;;;16.50;99.90;;;;;;5042635;28;20167;-69
2022/07/09 03:05:20;;;;;;;5.30;2.47;;;16.50;99.90;;;;;;5040458;28;20230;-69
2022/07/09 03:07:46;;;;;;;3.40;2.93;;;16.40;99.90;;;;;;5030370;28;20227;-69
2022/07/09 03:10:12;;;;;;;3.87;2.37;;;16.30;99.90;;;;;;5027635;28;20209;-68
2022/07/09 03:12:37;;;;;;;6.70;3.03;;;16.30;99.90;;;;;;5037655;28;20181;-69
2022/07/09 03:15:03;;;;;;;4.33;3.20;;;16.20;99.90;;;;;;5025820;28;20844;-69
2022/07/09 03:17:29;;;;;;;5.23;2.90;;;16.20;99.90;;;;;;5025147;28;20184;-69
2022/07/09 03:19:55;;;;;;;3.53;2.47;;;16.10;99.90;;;;;;5032178;28;20410;-69
2022/07/09 03:22:20;;;;;;;3.57;2.70;;;16.00;99.90;;;;;;5025524;28;20209;-69
2022/07/09 03:24:46;;;;;;;5.13;3.20;;;15.90;99.90;;;;;;5025949;28;20179;-71
2022/07/09 03:27:12;;;;;;;3.60;2.57;;;15.80;99.90;;;;;;5027321;28;20254;-68
2022/07/09 03:29:38;;;;;;;3.27;2.97;;;15.90;99.90;;;;;;5025514;28;20176;-69
2022/07/09 03:32:04;;;;;;;4.43;2.30;;;16.00;99.90;;;;;;5039398;28;20514;-70
2022/07/09 03:34:29;;;;;;;4.70;2.97;;;16.00;99.90;;;;;;5043452;28;20197;-70
2022/07/09 03:36:55;;;;;;;5.30;3.53;;;16.10;99.90;;;;;;5039210;28;20824;-70
2022/07/09 03:39:21;;;;;;;4.63;3.07;;;16.10;99.90;;;;;;5037650;28;20447;-69
2022/07/09 03:41:46;;;;;;;4.10;3.00;;;16.10;99.90;;;;;;5034286;28;20209;-70
2022/07/09 03:44:12;;;;;;;4.20;2.50;;;16.10;99.90;;;;;;5035223;28;20179;-74
2022/07/09 03:46:37;;;;;;;3.63;2.70;;;16.10;99.90;;;;;;5040703;28;20181;-70
2022/07/09 03:49:03;;;;;;;3.53;2.90;;;16.10;99.90;;;;;;5031088;28;20269;-70
2022/07/09 03:51:29;;;;;;;3.93;2.47;;;16.20;99.90;;;;;;5034035;28;20745;-69
2022/07/09 03:53:54;;;;;;;3.57;2.43;;;16.10;99.90;;;;;;5034229;28;20254;-70
2022/07/09 03:56:20;;;;;;;5.27;2.93;;;16.10;99.90;;;;;;5035117;28;20606;-71
2022/07/09 03:58:46;;;;;;;3.67;3.27;;;16.10;99.90;;;;;;5034003;28;20188;-70
2022/07/09 04:01:11;;;;;;;6.57;3.07;;;16.10;99.90;;;;;;5030923;28;20218;-73
2022/07/09 04:03:37;;;;;;;3.33;3.03;;;16.00;99.90;;;;;;5031386;28;20542;-70
2022/07/09 04:06:03;;;;;;;3.07;2.73;;;16.10;99.90;;;;;;5032966;28;20180;-68
2022/07/09 04:08:28;;;;;;;3.23;2.90;;;16.20;99.90;;;;;;5037323;28;20173;-69
2022/07/09 04:10:54;;;;;;;2.83;2.50;;;16.10;99.90;;;;;;5034402;28;20455;-72
2022/07/09 04:13:20;;;;;;;4.10;3.37;;;16.20;99.90;;;;;;5036834;28;20190;-69
2022/07/09 04:15:46;;;;;;;5.97;2.90;;;16.20;99.90;;;;;;5030531;28;20226;-68
2022/07/09 04:18:13;;;;;;;2.60;2.40;;;16.20;99.90;;;;;;5030034;28;20548;-69
2022/07/09 04:20:38;;;;;;;4.30;3.50;;;16.20;99.90;;;;;;5035110;28;20571;-69
2022/07/09 04:23:04;;;;;;;6.50;3.73;;;16.20;99.90;;;;;;5036844;28;20419;-69
2022/07/09 04:25:29;;;;;;;4.90;3.87;;;16.20;99.90;;;;;;5020530;28;20182;-70
2022/07/09 04:27:55;;;;;;;4.40;3.60;;;16.20;99.90;;;;;;5034479;28;20180;-69
2022/07/09 04:30:21;;;;;;;5.00;3.60;;;16.20;99.90;;;;;;5017564;28;20202;-68
2022/07/09 04:32:46;;;;;;;4.10;3.53;;;16.20;99.90;;;;;;5036127;28;20186;-69
2022/07/09 04:35:12;;;;;;;5.57;3.70;;;16.30;99.90;;;;;;5028170;28;20676;-69
2022/07/09 04:37:37;;;;;;;4.13;3.53;;;16.30;99.90;;;;;;5040100;28;20181;-71
2022/07/09 04:40:04;;;;;;;4.17;3.57;;;16.40;99.90;;;;;;5036223;28;20201;-68
2022/07/09 04:42:30;;;;;;;4.17;3.60;;;16.40;99.90;;;;;;5035807;28;20574;-68
2022/07/09 04:44:57;;;;;;;3.63;3.33;;;16.40;99.90;;;;;;5033572;28;20422;-69
2022/07/09 04:47:23;;;;;;;4.77;3.70;;;16.40;99.90;;;;;;5028454;28;20579;-70
2022/07/09 04:49:48;;;;;;;4.73;3.37;;;16.40;99.90;;;;;;5038446;28;20408;-70
2022/07/09 04:52:19;;;;;;;4.50;3.80;;;16.50;99.90;;;;;;5036789;28;20180;-71
2022/07/09 04:54:47;;;;;;;3.80;3.40;;;16.50;99.90;;;;;;5028441;28;20195;-69
2022/07/09 04:57:13;;;;;;;5.37;3.57;;;16.50;99.90;;;;;;5030347;28;20931;-69
2022/07/09 04:59:39;;;;;;;5.83;3.93;;;16.50;99.90;;;;;;5032309;28;20531;-68
2022/07/09 05:02:05;;;;;;;5.23;3.70;;;16.60;99.90;;;;;;5038325;28;20553;-70
2022/07/09 05:04:30;;;;;;;4.30;3.37;;;16.50;99.90;;;;;;5038489;28;20185;-70
2022/07/09 05:06:56;;;;;;;3.60;3.30;;;16.50;99.90;;;;;;5036343;28;20242;-69
2022/07/09 05:09:22;;;;;;;5.97;3.00;;;16.60;99.90;;;;;;5039422;28;20591;-70
2022/07/09 05:11:48;;;;;;;6.87;3.43;;;16.60;99.90;;;;;;5031202;28;20430;-69
2022/07/09 05:14:14;;;;;;;4.37;2.90;;;16.70;99.90;;;;;;5036889;28;20221;-70
2022/07/09 05:16:44;;;;;;;6.00;3.47;;;16.80;99.90;;;;;;5028626;28;20525;-69
2022/07/09 05:19:11;;;;;;;3.97;3.10;;;16.80;99.90;;;;;;5032281;28;20416;-69
2022/07/09 05:21:40;;;;;;;2.83;2.50;;;16.80;99.90;;;;;;5033327;28;20458;-71
2022/07/09 05:24:07;;;;;;;4.37;2.97;;;16.90;99.90;;;;;;5034725;28;20412;-69
2022/07/09 05:26:33;;;;;;;4.40;2.87;;;17.10;99.90;;;;;;5038811;28;20431;-71
2022/07/09 05:28:59;;;;;;;4.23;3.30;;;17.20;99.90;;;;;;5033013;28;20409;-69
2022/07/09 05:31:25;;;;;;;3.40;2.50;;;17.40;99.90;;;;;;5024578;28;20551;-68
2022/07/09 05:33:51;;;;;;;4.37;3.30;;;17.50;99.90;;;;;;5024230;28;20425;-68
2022/07/09 05:36:17;;;;;;;5.60;3.40;;;17.60;99.90;;;;;;5038810;28;20206;-70
2022/07/09 05:38:43;;;;;;;3.90;2.80;;;17.80;99.90;;;;;;5043277;28;20773;-69
2022/07/09 05:41:10;;;;;;;4.97;3.00;;;17.90;99.90;;;;;;5033730;28;20461;-71
2022/07/09 05:43:36;;;;;;;4.87;3.47;;;18.00;99.90;;;;;;5016700;28;20731;-70
2022/07/09 05:46:01;;;;;;;4.70;3.07;;;18.10;99.90;;;;;;5030801;28;20414;-70
2022/07/09 05:48:27;;;;;;;3.60;3.30;;;18.20;99.90;;;;;;5022995;28;20184;-69
2022/07/09 05:50:53;;;;;;;5.97;3.40;;;18.30;99.90;;;;;;5023161;28;20248;-72
2022/07/09 05:53:19;;;;;;;3.20;2.90;;;18.30;99.90;;;;;;5022960;28;20210;-70
2022/07/09 05:55:44;;;;;;;4.47;3.37;;;18.40;99.90;;;;;;5023059;28;20910;-72
2022/07/09 05:58:10;;;;;;;4.27;3.53;;;18.30;99.90;;;;;;5041581;28;20664;-69
2022/07/09 06:00:36;;;;;;;4.47;3.00;;;18.40;99.90;;;;;;5042216;28;20222;-69
2022/07/09 06:03:02;;;;;;;3.57;2.90;;;18.60;99.90;;;;;;5041970;28;20217;-70
2022/07/09 06:05:28;;;;;;;4.50;3.27;;;18.80;99.90;;;;;;5031335;28;20452;-69
2022/07/09 06:07:54;;;;;;;3.83;3.00;;;19.00;99.90;;;;;;5043321;28;20224;-69
2022/07/09 06:10:20;;;;;;;6.40;3.13;;;19.20;99.90;;;;;;5023885;28;20429;-69
2022/07/09 06:12:45;;;;;;;4.67;3.47;;;19.30;99.90;;;;;;5023323;28;20213;-69
2022/07/09 06:15:11;;;;;;;3.00;2.70;;;19.40;99.90;;;;;;5005217;28;20233;-68
2022/07/09 06:17:37;;;;;;;3.93;3.17;;;19.40;99.90;;;;;;5036794;28;20171;-72
2022/07/09 06:20:05;;;;;;;5.23;3.80;;;19.50;99.90;;;;;;5005569;28;20797;-69
2022/07/09 06:22:30;;;;;;;3.83;3.03;;;19.70;99.90;;;;;;5030748;28;20446;-73
2022/07/09 06:24:56;;;;;;;9.60;3.90;;;19.90;99.90;;;;;;5027945;28;20767;-70
2022/07/09 06:27:21;;;;;;;4.43;3.27;;;20.00;99.90;;;;;;5039503;28;20175;-69
2022/07/09 06:29:47;;;;;;;4.80;3.70;;;20.00;99.90;;;;;;5027875;28;20184;-69
2022/07/09 06:32:13;;;;;;;4.47;3.43;;;20.10;99.90;;;;;;5037225;28;20183;-69
2022/07/09 06:34:38;;;;;;;6.47;3.60;;;20.00;99.90;;;;;;5026712;28;20184;-73
2022/07/09 06:37:04;;;;;;;4.53;3.40;;;20.20;99.90;;;;;;5037945;28;20179;-68
2022/07/09 06:39:45;;;;;;;3.93;3.60;;;20.00;99.90;;;;;;5032359;28;20274;-69
2022/07/09 06:42:12;;;;;;;5.07;3.80;;;20.00;99.90;;;;;;5038794;28;21259;-76
2022/07/09 06:44:37;;;;;;;10.50;5.17;;;19.90;99.90;;;;;;5031761;28;20418;-69
2022/07/09 06:47:04;;;;;;;5.40;3.20;;;20.00;99.90;;;;;;5035519;28;20767;-72
2022/07/09 06:49:30;;;;;;;5.17;3.63;;;20.10;99.90;;;;;;5032223;28;20258;-69
2022/07/09 06:51:56;;;;;;;4.33;3.23;;;20.30;99.90;;;;;;5036988;28;20429;-72
2022/07/09 06:54:22;;;;;;;3.73;3.30;;;20.40;99.90;;;;;;5033919;28;20554;-73
2022/07/09 06:56:48;;;;;;;4.30;3.40;;;20.50;99.90;;;;;;5034658;28;20360;-69
2022/07/09 06:59:13;;;;;;;9.50;3.97;;;20.60;99.90;;;;;;5034521;28;20676;-69
2022/07/09 07:01:39;;;;;;;9.37;3.73;;;20.80;99.90;;;;;;5039236;28;20314;-69
2022/07/09 07:04:05;;;;;;;3.90;3.47;;;20.90;99.90;;;;;;5022673;28;20182;-70
2022/07/09 07:06:31;;;;;;;4.20;3.07;;;21.00;99.90;;;;;;5043071;28;20166;-72
2022/07/09 07:08:57;;;;;;;4.23;3.10;;;21.20;99.70;;;;;;5036649;28;20729;-70
2022/07/09 07:11:22;;;;;;;6.57;3.10;;;21.50;99.20;;;;;;5032842;28;20549;-71
2022/07/09 07:13:48;;;;;;;3.63;2.80;;;21.80;98.30;;;;;;5046108;28;20197;-70
2022/07/09 07:16:14;;;;;;;3.33;3.00;;;21.70;98.10;;;;;;5036547;28;20183;-70
2022/07/09 07:18:39;;;;;;;5.13;2.73;;;21.60;97.60;;;;;;5041228;28;20878;-70
2022/07/09 07:21:05;;;;;;;4.60;3.00;;;21.80;98.30;;;;;;5045951;28;20692;-69
2022/07/09 07:23:31;;;;;;;4.80;3.00;;;21.90;97.30;;;;;;5036685;28;20203;-69
2022/07/09 07:25:58;;;;;;;4.70;2.90;;;21.70;97.20;;;;;;5037801;28;20166;-70
2022/07/09 07:28:23;;;;;;;6.23;3.53;;;21.60;97.20;;;;;;5040205;28;20726;-69
2022/07/09 07:30:49;;;;;;;3.37;2.50;;;21.40;97.60;;;;;;5042461;28;20563;-75
2022/07/09 07:33:15;;;;;;;4.73;3.03;;;21.50;97.40;;;;;;5043943;28;20174;-70
2022/07/09 07:35:40;;;;;;;5.30;3.70;;;21.50;97.50;;;;;;5034777;28;20179;-69
2022/07/09 07:38:06;;;;;;;4.50;2.80;;;21.30;98.20;;;;;;5028499;28;20175;-68
2022/07/09 07:40:31;;;;;;;4.73;2.90;;;21.30;98.50;;;;;;5031339;28;20211;-69
2022/07/09 07:42:57;;;;;;;4.27;3.10;;;21.50;98.70;;;;;;5025549;28;20306;-72
2022/07/09 07:45:23;;;;;;;5.70;3.03;;;21.50;98.30;;;;;;5028263;28;20167;-70
2022/07/09 07:47:48;;;;;;;3.90;3.23;;;21.50;98.30;;;;;;5026530;28;20213;-69
2022/07/09 07:50:14;;;;;;;5.73;3.27;;;21.50;98.20;;;;;;5027650;28;20561;-70
2022/07/09 07:52:40;;;;;;;4.30;3.47;;;21.40;98.60;;;;;;5044708;28;20223;-72
2022/07/09 07:55:06;;;;;;;5.50;3.60;;;21.30;99.30;;;;;;5030003;28;20183;-70
2022/07/09 07:57:31;;;;;;;4.82;3.40;;;21.40;99.40;;;;;;5036113;28;21480;-69
2022/07/09 07:59:57;;;;;;;6.40;4.03;;;21.70;99.00;;;;;;5029577;28;20236;-69
2022/07/09 08:02:23;;;;;;;6.67;4.17;;;21.40;99.30;;;;;;5032596;28;20657;-69
2022/07/09 08:04:48;;;;;;;8.10;3.88;;;21.50;99.80;;;;;;5036175;28;20418;-72
2022/07/09 08:07:14;;;;;;;5.60;3.63;;;21.60;99.20;;;;;;5040020;28;20190;-69
2022/07/09 08:09:39;;;;;;;7.03;3.77;;;21.80;99.20;;;;;;5041539;28;20175;-72
2022/07/09 08:12:06;;;;;;;7.57;3.47;;;21.90;99.20;;;;;;5032104;28;20233;-68
2022/07/09 08:14:31;;;;;;;4.10;3.13;;;22.00;98.90;;;;;;5036602;28;20225;-70
2022/07/09 08:16:57;;;;;;;4.33;3.07;;;22.10;98.80;;;;;;5034949;28;20410;-69
2022/07/09 08:19:23;;;;;;;4.73;2.70;;;22.10;98.70;;;;;;5037276;28;20183;-67
2022/07/09 08:21:48;;;;;;;3.90;2.70;;;22.30;98.70;;;;;;5035483;28;20217;-69
2022/07/09 08:24:14;;;;;;;5.53;2.60;;;22.10;98.40;;;;;;5034779;28;20255;-67
2022/07/09 08:26:39;;;;;;;4.47;3.10;;;22.10;98.30;;;;;;5036333;28;20176;-69
2022/07/09 08:29:05;;;;;;;3.20;2.20;;;22.20;98.20;;;;;;5035398;28;20181;-71
2022/07/09 08:31:31;;;;;;;3.80;2.20;;;22.20;97.80;;;;;;5032860;28;20203;-70
2022/07/09 08:33:56;;;;;;;2.77;2.20;;;22.30;97.70;;;;;;5040510;28;20265;-69
2022/07/09 08:36:22;;;;;;;3.63;2.57;;;22.60;97.60;;;;;;5034166;28;20220;-68
2022/07/09 08:38:49;;;;;;;4.00;2.67;;;22.60;97.40;;;;;;5040228;28;20183;-68
2022/07/09 08:41:19;;;;;;;3.60;2.50;;;22.50;97.60;;;;;;5030703;28;20277;-70
2022/07/09 08:43:50;;;;;;;3.20;2.87;;;22.60;97.40;;;;;;5036726;28;20773;-68
2022/07/09 08:46:16;;;;;;;4.13;2.40;;;22.80;97.00;;;;;;5037107;28;20405;-70
2022/07/09 08:48:43;;;;;;;6.10;2.60;;;22.90;97.10;;;;;;5038831;28;20480;-68
2022/07/09 08:51:09;;;;;;;2.97;1.83;;;23.00;96.80;;;;;;5037351;28;20443;-69
2022/07/09 08:53:40;;;;;;;2.93;2.10;;;22.80;96.50;;;;;;5037799;28;20909;-70
2022/07/09 08:56:07;;;;;;;4.40;2.20;;;22.60;96.60;;;;;;5039125;28;20174;-70
2022/07/09 08:58:32;;;;;;;3.33;2.83;;;22.50;96.60;;;;;;5043744;28;20952;-70
2022/07/09 09:00:58;;;;;;;4.50;2.17;;;22.60;96.80;;;;;;5033241;28;20490;-70
2022/07/09 09:03:24;;;;;;;3.30;2.70;;;22.70;96.30;;;;;;5033860;28;20760;-70
2022/07/09 09:06:04;;;;;;;3.33;2.17;;;22.80;95.50;;;;;;5032499;28;20175;-71
2022/07/09 09:08:39;;;;;;;4.30;2.23;;;22.70;95.20;;;;;;5036709;28;20171;-69
2022/07/09 09:11:05;;;;;;;2.00;1.80;;;22.80;95.80;;;;;;5029619;28;20511;-69
2022/07/09 09:13:39;;;;;;;3.50;2.20;;;23.00;94.60;;;;;;5038152;28;20413;-70
2022/07/09 09:16:06;;;;;;;3.00;1.63;;;23.20;95.10;;;;;;5033531;28;20413;-73
2022/07/09 09:18:34;;;;;;;2.20;2.00;;;23.50;94.60;;;;;;5030354;28;20548;-69
2022/07/09 09:21:05;;;;;;;3.33;1.90;;;23.60;94.60;;;;;;5031961;28;20544;-70
2022/07/09 09:23:42;;;;;;;2.60;2.00;;;23.20;94.60;;;;;;5034217;28;20413;-72
2022/07/09 09:26:16;;;;;;;2.00;1.83;;;23.50;94.80;;;;;;5035731;28;20842;-70
2022/07/09 09:28:47;;;;;;;4.47;2.30;;;23.60;94.80;;;;;;5034279;28;21058;-73
2022/07/09 09:31:26;;;;;;;2.13;1.37;;;23.70;94.80;;;;;;5060415;22;21380;-71
2022/07/09 09:33:54;;;;;;;2.67;2.00;;;23.40;94.00;;;;;;5043734;28;20409;-72
2022/07/09 09:36:32;;;;;;;2.03;1.63;;;23.40;93.90;;;;;;5043803;28;20405;-73
2022/07/09 09:39:16;;;;;;;4.20;1.90;;;23.80;94.40;;;;;;5036229;28;20392;-71
2022/07/09 09:41:44;;;;;;;2.27;1.60;;;24.00;93.60;;;;;;5040441;28;20536;-72
2022/07/09 09:44:18;;;;;;;4.67;1.77;;;24.10;93.30;;;;;;5023741;28;20421;-70
2022/07/09 09:46:45;;;;;;;2.60;1.70;;;24.20;92.70;;;;;;5036485;28;20401;-73
2022/07/09 09:49:14;;;;;;;3.67;1.90;;;24.40;92.60;;;;;;5043377;28;20298;-74
2022/07/09 09:51:50;;;;;;;3.90;1.80;;;24.40;92.30;;;;;;5040144;28;20494;-72
2022/07/09 09:54:18;;;;;;;1.83;1.63;;;24.30;92.30;;;;;;5016260;28;20421;-73
2022/07/09 09:56:44;;;;;;;3.40;1.90;;;24.30;93.10;;;;;;5043502;28;20412;-73
2022/07/09 09:59:11;;;;;;;3.00;2.30;;;24.60;92.10;;;;;;5041543;28;20416;-72
2022/07/09 10:01:38;;;;;;;3.70;1.70;;;24.60;92.00;;;;;;5035425;28;20448;-72
2022/07/09 10:04:04;;;;;;;2.70;1.80;;;25.00;91.40;;;;;;5045781;28;20962;-72
2022/07/09 10:06:30;;;;;;;5.20;2.23;;;25.40;91.60;;;;;;5043735;28;20412;-73
2022/07/09 10:08:56;;;;;;;3.03;2.20;;;25.50;90.30;;;;;;5044761;28;20170;-72
2022/07/09 10:11:22;;;;;;;2.80;1.80;;;25.40;90.30;;;;;;5047740;28;20217;-74
2022/07/09 10:13:56;;;;;;;6.43;2.10;;;25.50;90.30;;;;;;5047536;28;20814;-72
2022/07/09 10:16:38;;;;;;;4.13;2.00;;;25.60;90.90;;;;;;5026876;28;20422;-72
2022/07/09 10:19:05;;;;;;;2.73;1.80;;;25.70;89.80;;;;;;5027251;28;20429;-74
2022/07/09 10:21:40;;;;;;;3.57;1.67;;;25.90;89.70;;;;;;5027356;28;20925;-74
2022/07/09 10:24:09;;;;;;;4.70;1.93;;;26.00;88.00;;;;;;5027463;28;20501;-73
2022/07/09 10:26:47;;;;;;;1.83;1.70;;;25.90;86.70;;;;;;5032305;28;20420;-73
2022/07/09 10:29:22;;;;;;;2.33;1.87;;;25.40;86.90;;;;;;5046939;28;20454;-72
2022/07/09 10:31:49;;;;;;;4.13;2.10;;;25.20;86.80;;;;;;5034227;28;20497;-72
2022/07/09 10:34:42;;;;;;;3.53;1.60;;;25.40;85.80;;;;;;5046792;28;20412;-72
2022/07/09 10:37:08;;;;;;;2.30;1.50;;;25.40;84.50;;;;;;5035510;28;20436;-73
2022/07/09 10:39:34;;;;;;;2.30;1.40;;;25.70;84.90;;;;;;5045253;28;20409;-72
2022/07/09 10:42:17;;;;;;;2.67;1.80;;;26.00;83.00;;;;;;5042996;28;20448;-73
2022/07/09 10:44:42;;;;;;;2.83;1.30;;;26.00;81.90;;;;;;5047062;28;20491;-73
2022/07/09 10:47:08;;;;;;;2.50;1.40;;;25.50;82.20;;;;;;5046452;28;20823;-73
2022/07/09 10:49:38;;;;;;;1.53;1.40;;;25.50;82.80;;;;;;5031719;28;20718;-73
2022/07/09 10:52:07;;;;;;;2.23;1.40;;;25.90;83.20;;;;;;5026754;28;20183;-72
2022/07/09 10:54:34;;;;;;;2.30;1.10;;;26.50;83.30;;;;;;5036912;28;21475;-72
2022/07/09 10:56:59;;;;;;;3.00;1.20;;;26.70;78.90;;;;;;5027127;28;20627;-73
2022/07/09 10:59:26;;;;;;;2.37;1.30;;;26.60;76.40;;;;;;5009794;28;20448;-73
2022/07/09 11:01:52;;;;;;;2.40;1.00;;;26.90;76.60;;;;;;5027673;28;20199;-73
2022/07/09 11:04:31;;;;;;;1.43;1.23;;;27.30;76.70;;;;;;5026731;28;20410;-73
2022/07/09 11:06:57;;;;;;;1.20;1.00;;;27.10;76.30;;;;;;5029602;28;20413;-74
2022/07/09 11:09:25;;;;;;;3.37;1.60;;;26.50;78.30;;;;;;5046217;28;20413;-71
2022/07/09 11:11:50;;;;;;;1.77;1.23;;;26.20;77.60;;;;;;5045618;28;21047;-71
2022/07/09 11:14:16;;;;;;;1.67;1.07;;;26.00;76.10;;;;;;5046503;28;20423;-73
2022/07/09 11:16:42;;;;;;;2.77;1.40;;;25.60;75.00;;;;;;5038648;28;20179;-72
2022/07/09 11:19:18;;;;;;;2.77;1.50;;;26.20;74.80;;;;;;5026708;28;20202;-73
2022/07/09 11:21:44;;;;;;;3.03;1.27;;;26.00;75.30;;;;;;5026014;28;20198;-73
2022/07/09 11:24:19;;;;;;;2.07;1.60;;;26.00;77.00;;;;;;5038883;28;20787;-73
2022/07/09 11:26:45;;;;;;;3.60;2.00;;;25.70;78.90;;;;;;5045913;28;20415;-72
2022/07/09 11:29:11;;;;;;;2.10;1.50;;;25.70;80.20;;;;;;5046029;28;20424;-72
2022/07/09 11:31:45;;;;;;;1.50;1.40;;;25.70;79.40;;;;;;5029567;28;20446;-72
2022/07/09 11:34:11;;;;;;;4.10;1.53;;;25.60;80.30;;;;;;5026115;28;20210;-72
2022/07/09 11:36:38;;;;;;;2.43;1.60;;;25.60;80.00;;;;;;5026120;28;20449;-73
2022/07/09 11:39:03;;;;;;;3.17;1.50;;;25.60;81.10;;;;;;5025828;28;20190;-73
2022/07/09 11:41:43;;;;;;;2.93;1.53;;;25.70;80.60;;;;;;5026143;28;21499;-71
2022/07/09 11:44:09;;;;;;;3.70;1.53;;;26.20;79.90;;;;;;5039055;28;20627;-72
2022/07/09 11:46:37;;;;;;;1.50;1.40;;;26.60;78.10;;;;;;5041891;28;20405;-73
2022/07/09 11:49:12;;;;;;;5.00;1.60;;;26.70;79.80;;;;;;5045278;28;20972;-72
2022/07/09 11:51:39;;;;;;;1.47;1.23;;;26.40;79.70;;;;;;5045696;28;20474;-72
2022/07/09 11:54:05;;;;;;;2.50;1.63;;;26.40;78.70;;;;;;5045591;28;20507;-72
2022/07/09 11:56:45;;;;;;;3.83;1.27;;;26.40;78.40;;;;;;5043874;28;20551;-73
2022/07/09 11:59:11;;;;;;;2.73;1.60;;;26.30;78.30;;;;;;5025198;28;20217;-74
2022/07/09 12:01:38;;;;;;;3.63;1.13;;;26.30;79.10;;;;;;5024206;28;20860;-73
2022/07/09 12:04:04;;;;;;;2.77;1.60;;;26.60;77.90;;;;;;5025180;28;20409;-72
2022/07/09 12:06:30;;;;;;;2.20;1.53;;;26.60;77.20;;;;;;5036645;28;20437;-73
2022/07/09 12:09:16;;;;;;;2.47;1.30;;;27.30;76.10;;;;;;5006982;28;20233;-74
2022/07/09 12:11:42;;;;;;;1.87;1.00;;;27.80;74.80;;;;;;5025121;28;20801;-74
2022/07/09 12:14:07;;;;;;;2.80;1.33;;;29.20;71.70;;;;;;5043287;28;20910;-73
2022/07/09 12:16:33;;;;;;;1.37;1.10;;;30.70;68.30;;;;;;5033648;28;21129;-73
2022/07/09 12:18:58;;;;;;;1.87;1.30;;;30.30;65.60;;;;;;5040313;28;20232;-74
2022/07/09 12:21:24;;;;;;;1.80;0.90;;;30.40;65.70;;;;;;5043737;28;20604;-73
2022/07/09 12:23:49;;;;;;;3.17;1.30;;;30.60;65.70;;;;;;5033105;28;20206;-73
2022/07/09 12:26:15;;;;;;;2.17;1.73;;;29.00;67.40;;;;;;5045038;28;20550;-72
2022/07/09 12:28:41;;;;;;;2.50;1.40;;;27.70;71.70;;;;;;5042993;28;21308;-72
2022/07/09 12:31:06;;;;;;;2.50;1.67;;;26.90;74.10;;;;;;5040841;28;20222;-73
2022/07/09 12:33:32;;;;;;;2.53;1.67;;;26.60;75.10;;;;;;5032724;28;20206;-72
2022/07/09 12:35:58;;;;;;;2.00;1.30;;;26.60;75.90;;;;;;5031857;28;20186;-72
2022/07/09 12:38:23;;;;;;;2.03;1.47;;;26.80;75.00;;;;;;5040429;28;20655;-72
2022/07/09 12:40:49;;;;;;;2.33;1.40;;;27.10;74.80;;;;;;5032076;28;20203;-73
2022/07/09 12:43:14;;;;;;;4.40;1.57;;;27.80;76.30;;;;;;5037380;28;20550;-73
2022/07/09 12:45:41;;;;;;;2.67;1.20;;;28.50;71.70;;;;;;5027172;28;20185;-72